createdAt,value
2018-10-11T00:01:20.436Z,18.23
2018-10-11T00:03:48.852Z,19.13
2018-10-11T00:06:17.357Z,18.50
2018-10-11T00:08:45.652Z,17.60
2018-10-11T00:11:13.974Z,18.70
2018-10-11T00:13:42.412Z,17.23
2018-10-11T00:16:10.705Z,18.43
2018-10-11T00:18:38.993Z,19.10
2018-10-11T00:21:07.530Z,18.50
2018-10-11T00:23:35.841Z,18.03
2018-10-11T00:26:04.590Z,18.13
2018-10-11T00:28:33.208Z,18.20
2018-10-11T00:31:01.603Z,17.83
2018-10-11T00:33:29.892Z,17.40
2018-10-11T00:35:58.789Z,18.03
2018-10-11T00:38:27.093Z,17.10
2018-10-11T00:40:55.464Z,16.87
2018-10-11T00:43:23.788Z,17.40
2018-10-11T00:45:52.269Z,17.43
2018-10-11T00:48:20.553Z,17.00
2018-10-11T00:50:48.905Z,17.83
2018-10-11T00:53:17.199Z,22.77
2018-10-11T00:55:45.480Z,21.13
2018-10-11T00:58:13.801Z,28.43
2018-10-11T01:00:42.119Z,17.77
2018-10-11T01:03:10.462Z,18.07
2018-10-11T01:05:38.791Z,18.57
2018-10-11T01:08:07.100Z,17.17
2018-10-11T01:10:35.452Z,18.50
2018-10-11T01:13:03.937Z,18.27
2018-10-11T01:15:32.300Z,18.03
2018-10-11T01:18:00.714Z,18.40
2018-10-11T01:20:29.037Z,20.30
2018-10-11T01:22:57.525Z,18.87
2018-10-11T01:25:25.825Z,19.73
2018-10-11T01:27:54.490Z,19.23
2018-10-11T01:30:22.929Z,18.63
2018-10-11T01:32:51.220Z,21.43
2018-10-11T01:35:19.558Z,18.30
2018-10-11T01:37:47.866Z,19.53
2018-10-11T01:40:16.175Z,19.10
2018-10-11T01:42:44.507Z,17.23
2018-10-11T01:45:12.817Z,19.50
2018-10-11T01:47:41.173Z,19.30
2018-10-11T01:50:09.521Z,20.17
2018-10-11T01:52:37.826Z,20.07
2018-10-11T01:55:06.924Z,19.33
2018-10-11T01:57:35.285Z,18.57
2018-10-11T02:00:03.925Z,19.27
2018-10-11T02:02:32.228Z,18.40
2018-10-11T02:05:00.629Z,19.90
2018-10-11T02:07:28.929Z,18.30
2018-10-11T02:09:57.325Z,19.10
2018-10-11T02:12:25.656Z,19.77
2018-10-11T02:14:53.981Z,19.43
2018-10-11T02:17:22.323Z,20.20
2018-10-11T02:19:50.647Z,19.00
2018-10-11T02:22:18.937Z,19.47
2018-10-11T02:24:47.229Z,20.33
2018-10-11T02:27:15.869Z,19.27
2018-10-11T02:29:44.156Z,20.03
2018-10-11T02:32:12.515Z,18.40
2018-10-11T02:34:40.901Z,18.73
2018-10-11T02:37:09.514Z,18.87
2018-10-11T02:39:37.817Z,19.27
2018-10-11T02:42:06.171Z,19.77
2018-10-11T02:44:34.456Z,19.90
2018-10-11T02:47:03.993Z,19.93
2018-10-11T02:49:32.326Z,19.90
2018-10-11T02:52:00.752Z,20.03
2018-10-11T02:54:29.074Z,20.80
2018-10-11T02:57:01.608Z,19.73
2018-10-11T02:59:32.585Z,19.80
2018-10-11T03:02:02.940Z,20.47
2018-10-11T03:04:32.132Z,20.87
2018-10-11T03:07:00.489Z,20.10
2018-10-11T03:09:28.885Z,21.20
2018-10-11T03:11:57.585Z,19.77
2018-10-11T03:14:26.490Z,18.60
2018-10-11T03:16:54.917Z,19.47
2018-10-11T03:19:23.241Z,19.73
2018-10-11T03:21:51.536Z,19.97
2018-10-11T03:24:19.901Z,19.97
2018-10-11T03:26:48.156Z,20.03
2018-10-11T03:29:16.435Z,19.40
2018-10-11T03:31:45.069Z,20.40
2018-10-11T03:34:13.352Z,21.00
2018-10-11T03:36:41.641Z,20.23
2018-10-11T03:39:13.689Z,19.43
2018-10-11T03:41:41.987Z,20.30
2018-10-11T03:44:10.284Z,20.37
2018-10-11T03:46:38.631Z,19.90
2018-10-11T03:49:06.980Z,19.73
2018-10-11T03:51:35.280Z,20.07
2018-10-11T03:54:03.666Z,19.60
2018-10-11T03:56:31.960Z,18.67
2018-10-11T03:59:00.313Z,21.13
2018-10-11T04:01:28.692Z,20.73
2018-10-11T04:03:57.641Z,20.00
2018-10-11T04:06:26.040Z,20.40
2018-10-11T04:08:54.834Z,20.13
2018-10-11T04:11:23.137Z,20.03
2018-10-11T04:13:51.437Z,21.37
2018-10-11T04:16:19.784Z,20.30
2018-10-11T04:18:48.065Z,20.77
2018-10-11T04:21:16.348Z,19.00
2018-10-11T04:23:44.661Z,20.20
2018-10-11T04:26:12.973Z,21.17
2018-10-11T04:28:41.277Z,19.80
2018-10-11T04:31:09.625Z,20.40
2018-10-11T04:33:37.917Z,20.47
2018-10-11T04:36:06.365Z,20.30
2018-10-11T04:38:34.690Z,19.70
2018-10-11T04:41:02.981Z,20.93
2018-10-11T04:43:31.277Z,19.33
2018-10-11T04:45:59.919Z,19.83
2018-10-11T04:48:28.208Z,21.30
2018-10-11T04:50:56.599Z,20.40
2018-10-11T04:53:24.941Z,21.57
2018-10-11T04:55:53.249Z,20.83
2018-10-11T04:58:21.546Z,20.53
2018-10-11T05:00:50.184Z,21.00
2018-10-11T05:03:18.472Z,21.50
2018-10-11T05:05:46.848Z,19.83
2018-10-11T05:08:15.180Z,20.63
2018-10-11T05:10:44.013Z,19.50
2018-10-11T05:13:12.751Z,19.87
2018-10-11T05:15:42.132Z,19.90
2018-10-11T05:18:11.440Z,20.97
2018-10-11T05:20:39.764Z,20.30
2018-10-11T05:23:08.093Z,19.90
2018-10-11T05:25:36.468Z,19.43
2018-10-11T05:28:04.864Z,20.13
2018-10-11T05:30:33.245Z,20.80
2018-10-11T05:33:01.651Z,19.47
2018-10-11T05:35:29.960Z,20.77
2018-10-11T05:37:58.424Z,20.80
2018-10-11T05:40:26.741Z,19.77
2018-10-11T05:42:55.350Z,19.93
2018-10-11T05:45:25.125Z,19.43
2018-10-11T05:47:53.456Z,20.50
2018-10-11T05:50:21.920Z,20.37
2018-10-11T05:52:50.413Z,19.60
2018-10-11T05:55:18.767Z,18.20
2018-10-11T05:57:47.145Z,17.87
2018-10-11T06:00:15.539Z,18.37
2018-10-11T06:02:58.019Z,18.67
2018-10-11T06:05:26.564Z,18.57
2018-10-11T06:07:54.990Z,17.67
2018-10-11T06:10:23.328Z,17.90
2018-10-11T06:12:51.757Z,16.83
2018-10-11T06:15:20.129Z,17.60
2018-10-11T06:17:48.529Z,17.07
2018-10-11T06:20:16.900Z,16.13
2018-10-11T06:22:45.213Z,15.03
2018-10-11T06:25:13.530Z,15.70
2018-10-11T06:27:42.956Z,15.20
2018-10-11T06:30:12.153Z,14.27
2018-10-11T06:32:40.545Z,14.13
2018-10-11T06:35:09.077Z,13.63
2018-10-11T06:37:37.682Z,13.07
2018-10-11T06:40:06.009Z,13.33
2018-10-11T06:42:34.413Z,14.00
2018-10-11T06:45:03.277Z,13.33
2018-10-11T06:47:32.701Z,12.00
2018-10-11T06:50:02.193Z,12.90
2018-10-11T06:52:30.440Z,13.17
2018-10-11T06:54:58.756Z,13.67
2018-10-11T06:57:27.084Z,12.37
2018-10-11T06:59:55.369Z,12.27
2018-10-11T07:02:23.667Z,11.50
2018-10-11T07:04:51.989Z,12.13
2018-10-11T07:07:20.337Z,12.30
2018-10-11T07:09:48.584Z,12.53
2018-10-11T07:12:16.900Z,12.83
2018-10-11T07:14:45.249Z,12.50
2018-10-11T07:17:13.581Z,12.00
2018-10-11T07:19:41.898Z,11.17
2018-10-11T07:22:10.420Z,12.17
2018-10-11T07:24:38.709Z,11.87
2018-10-11T07:27:07.079Z,11.37
2018-10-11T07:29:35.372Z,11.60
2018-10-11T07:32:03.857Z,11.00
2018-10-11T07:34:32.276Z,14.03
2018-10-11T07:37:00.529Z,14.57
2018-10-11T07:39:28.865Z,13.00
2018-10-11T07:41:57.180Z,12.70
2018-10-11T07:44:25.461Z,14.20
2018-10-11T07:46:53.751Z,13.23
2018-10-11T07:49:22.077Z,13.07
2018-10-11T07:51:50.370Z,11.87
2018-10-11T07:54:18.669Z,13.90
2018-10-11T07:56:46.996Z,12.90
2018-10-11T07:59:15.405Z,13.23
2018-10-11T08:01:43.761Z,13.17
2018-10-11T08:04:12.137Z,11.67
2018-10-11T08:06:40.477Z,11.80
2018-10-11T08:09:08.951Z,12.30
2018-10-11T08:11:37.372Z,12.00
2018-10-11T08:14:05.900Z,10.87
2018-10-11T08:16:34.287Z,11.73
2018-10-11T08:19:02.791Z,11.40
2018-10-11T08:21:31.096Z,11.50
2018-10-11T08:23:59.432Z,11.93
2018-10-11T08:26:28.120Z,11.50
2018-10-11T08:28:56.089Z,11.33
2018-10-11T08:31:24.393Z,11.97
2018-10-11T08:33:52.889Z,11.53
2018-10-11T08:36:21.179Z,11.53
2018-10-11T08:38:49.479Z,11.23
2018-10-11T08:41:17.789Z,10.77
2018-10-11T08:43:46.137Z,10.87
2018-10-11T08:46:14.493Z,11.60
2018-10-11T08:48:42.829Z,11.60
2018-10-11T08:51:11.203Z,10.93
2018-10-11T08:53:39.532Z,10.70
2018-10-11T08:56:08.035Z,10.40
2018-10-11T08:58:36.337Z,11.33
2018-10-11T09:01:04.864Z,9.60
2018-10-11T09:03:33.311Z,10.07
2018-10-11T09:06:01.697Z,10.57
2018-10-11T09:08:30.042Z,10.57
2018-10-11T09:10:58.474Z,11.00
2018-10-11T09:13:26.781Z,10.17
2018-10-11T09:15:55.262Z,10.17
2018-10-11T09:18:23.680Z,10.23
2018-10-11T09:20:51.978Z,11.10
2018-10-11T09:23:20.315Z,11.47
2018-10-11T09:25:48.640Z,9.77
2018-10-11T09:28:17.021Z,10.27
2018-10-11T09:30:45.317Z,10.17
2018-10-11T09:33:13.772Z,10.40
2018-10-11T09:35:42.061Z,9.77
2018-10-11T09:38:10.398Z,9.90
2018-10-11T09:40:38.705Z,9.50
2018-10-11T09:43:07.029Z,9.93
2018-10-11T09:45:35.332Z,10.23
2018-10-11T09:48:03.657Z,10.07
2018-10-11T09:50:31.933Z,9.70
2018-10-11T09:53:00.292Z,9.27
2018-10-11T09:55:28.632Z,10.23
2018-10-11T09:57:56.984Z,9.13
2018-10-11T10:00:30.762Z,9.30
2018-10-11T10:02:59.084Z,9.97
2018-10-11T10:05:27.357Z,9.53
2018-10-11T10:07:55.676Z,9.80
2018-10-11T10:10:23.954Z,9.60
2018-10-11T10:12:52.348Z,9.07
2018-10-11T10:15:20.731Z,9.93
2018-10-11T10:17:48.964Z,9.90
2018-10-11T10:20:17.269Z,9.50
2018-10-11T10:22:45.593Z,10.03
2018-10-11T10:25:13.892Z,9.20
2018-10-11T10:27:42.196Z,9.77
2018-10-11T10:30:15.917Z,9.73
2018-10-11T10:32:44.225Z,10.40
2018-10-11T10:35:12.512Z,10.17
2018-10-11T10:37:40.829Z,9.97
2018-10-11T10:40:09.346Z,9.50
2018-10-11T10:42:37.676Z,10.00
2018-10-11T10:45:06.575Z,8.83
2018-10-11T10:47:34.937Z,9.60
2018-10-11T10:50:03.248Z,9.53
2018-10-11T10:52:31.564Z,10.27
2018-10-11T10:54:59.845Z,9.93
2018-10-11T10:57:28.139Z,9.23
2018-10-11T10:59:56.473Z,9.70
2018-10-11T11:02:24.849Z,9.50
2018-10-11T11:04:53.136Z,8.80
2018-10-11T11:07:21.516Z,9.47
2018-10-11T11:09:49.773Z,9.23
2018-10-11T11:12:18.104Z,9.10
2018-10-11T11:14:46.430Z,9.50
2018-10-11T11:17:14.750Z,8.93
2018-10-11T11:19:43.044Z,8.90
2018-10-11T11:22:11.445Z,9.33
2018-10-11T11:24:39.737Z,8.13
2018-10-11T11:27:08.017Z,8.27
2018-10-11T11:29:36.341Z,7.93
2018-10-11T11:32:04.638Z,9.00
2018-10-11T11:34:32.904Z,7.93
2018-10-11T11:37:01.477Z,8.13
2018-10-11T11:39:29.775Z,8.80
2018-10-11T11:41:58.070Z,7.60
2018-10-11T11:44:26.429Z,8.40
2018-10-11T11:46:55.049Z,8.03
2018-10-11T11:49:23.340Z,9.10
2018-10-11T11:51:51.852Z,8.17
2018-10-11T11:54:21.317Z,8.10
2018-10-11T11:56:50.305Z,8.90
2018-10-11T11:59:18.686Z,9.13
2018-10-11T12:01:46.917Z,8.70
2018-10-11T12:04:15.254Z,9.50
2018-10-11T12:06:43.585Z,9.23
2018-10-11T12:09:13.149Z,9.63
2018-10-11T12:11:41.709Z,9.47
2018-10-11T12:14:10.077Z,9.63
2018-10-11T12:16:38.841Z,10.13
2018-10-11T12:19:08.068Z,9.53
2018-10-11T12:21:36.400Z,9.33
2018-10-11T12:24:04.705Z,9.00
2018-10-11T12:26:33.017Z,9.93
2018-10-11T12:29:01.549Z,9.67
2018-10-11T12:31:29.790Z,8.73
2018-10-11T12:33:58.093Z,8.30
2018-10-11T12:36:26.413Z,8.93
2018-10-11T12:38:55.775Z,9.40
2018-10-11T12:41:23.393Z,9.40
2018-10-11T12:43:51.737Z,8.63
2018-10-11T12:46:20.279Z,8.90
2018-10-11T12:48:48.573Z,8.37
2018-10-11T12:51:16.922Z,8.50
2018-10-11T12:53:48.304Z,9.13
2018-10-11T12:56:13.890Z,16.33
2018-10-11T12:58:42.203Z,7.87
2018-10-11T13:01:10.500Z,8.33
2018-10-11T13:03:38.805Z,7.80
2018-10-11T13:06:07.161Z,8.70
2018-10-11T13:08:35.465Z,8.40
2018-10-11T13:11:03.748Z,7.70
2018-10-11T13:13:32.081Z,7.60
2018-10-11T13:16:02.839Z,8.17
2018-10-11T13:18:28.695Z,7.90
2018-10-11T13:20:57.013Z,7.63
2018-10-11T13:23:25.300Z,7.60
2018-10-11T13:25:53.721Z,8.17
2018-10-11T13:28:22.062Z,7.67
2018-10-11T13:30:50.359Z,7.87
2018-10-11T13:33:18.672Z,7.17
2018-10-11T13:35:47.010Z,7.77
2018-10-11T13:38:15.337Z,7.60
2018-10-11T13:40:43.788Z,8.77
2018-10-11T13:43:12.158Z,7.83
2018-10-11T13:45:40.730Z,7.40
2018-10-11T13:48:09.041Z,6.97
2018-10-11T13:50:37.360Z,7.53
2018-10-11T13:53:05.866Z,7.13
2018-10-11T13:55:34.145Z,7.67
2018-10-11T13:58:02.485Z,7.30
2018-10-11T14:00:31.079Z,7.50
2018-10-11T14:02:59.377Z,7.63
2018-10-11T14:05:27.699Z,7.47
2018-10-11T14:07:56.344Z,7.67
2018-10-11T14:10:24.787Z,7.47
2018-10-11T14:12:53.102Z,7.13
2018-10-11T14:15:22.698Z,7.53
2018-10-11T14:17:51.050Z,8.17
2018-10-11T14:20:19.362Z,7.67
2018-10-11T14:22:47.649Z,7.97
2018-10-11T14:25:15.941Z,7.60
2018-10-11T14:27:44.376Z,7.67
2018-10-11T14:30:12.672Z,8.50
2018-10-11T14:32:40.962Z,7.47
2018-10-11T14:35:09.268Z,7.30
2018-10-11T14:37:37.550Z,7.70
2018-10-11T14:40:05.907Z,7.83
2018-10-11T14:42:34.252Z,8.20
2018-10-11T14:45:02.544Z,8.27
2018-10-11T14:47:30.821Z,9.07
2018-10-11T14:49:59.144Z,7.83
2018-10-11T14:52:27.477Z,7.80
2018-10-11T14:54:55.768Z,8.40
2018-10-11T14:57:24.175Z,7.90
2018-10-11T14:59:52.417Z,8.20
2018-10-11T15:02:21.733Z,8.87
2018-10-11T15:04:50.282Z,8.53
2018-10-11T15:07:18.593Z,8.70
2018-10-11T15:09:46.972Z,8.90
2018-10-11T15:12:15.379Z,9.13
2018-10-11T15:14:43.809Z,8.63
2018-10-11T15:17:12.206Z,8.93
2018-10-11T15:19:40.525Z,8.60
2018-10-11T15:22:08.813Z,9.80
2018-10-11T15:24:37.260Z,10.37
2018-10-11T15:27:05.589Z,8.40
2018-10-11T15:29:33.896Z,9.37
2018-10-11T15:32:02.266Z,9.47
2018-10-11T15:34:30.688Z,9.17
2018-10-11T15:36:58.974Z,9.03
2018-10-11T15:39:27.345Z,9.47
2018-10-11T15:41:55.657Z,9.03
2018-10-11T15:44:23.951Z,9.50
2018-10-11T15:46:52.327Z,9.23
2018-10-11T15:49:20.728Z,9.13
2018-10-11T15:51:49.101Z,8.87
2018-10-11T15:54:17.660Z,10.37
2018-10-11T15:56:45.985Z,10.40
2018-10-11T15:59:14.278Z,9.97
2018-10-11T16:01:43.916Z,9.60
2018-10-11T16:04:12.476Z,9.87
2018-10-11T16:06:40.869Z,10.33
2018-10-11T16:09:09.979Z,10.87
2018-10-11T16:11:38.204Z,10.13
2018-10-11T16:14:06.492Z,10.80
2018-10-11T16:16:34.789Z,11.23
2018-10-11T16:19:03.116Z,9.57
2018-10-11T16:21:31.517Z,11.97
2018-10-11T16:23:59.857Z,10.60
2018-10-11T16:26:28.372Z,9.73
2018-10-11T16:28:56.965Z,10.73
2018-10-11T16:31:25.391Z,10.73
2018-10-11T16:33:53.762Z,10.63
2018-10-11T16:36:22.278Z,10.47
2018-10-11T16:38:50.675Z,10.33
2018-10-11T16:41:19.161Z,10.50
2018-10-11T16:43:48.185Z,10.87
2018-10-11T16:46:16.648Z,11.80
2018-10-11T16:48:45.155Z,11.83
2018-10-11T16:51:13.580Z,11.00
2018-10-11T16:53:41.985Z,10.63
2018-10-11T16:56:10.344Z,10.50
2018-10-11T16:58:38.676Z,11.80
2018-10-11T17:01:07.445Z,10.83
2018-10-11T17:03:35.772Z,11.47
2018-10-11T17:06:04.369Z,11.80
2018-10-11T17:08:32.672Z,12.20
2018-10-11T17:11:00.998Z,11.67
2018-10-11T17:13:29.352Z,13.07
2018-10-11T17:15:57.832Z,11.50
2018-10-11T17:18:26.196Z,11.53
2018-10-11T17:20:54.533Z,12.30
2018-10-11T17:23:22.929Z,12.27
2018-10-11T17:25:51.281Z,11.23
2018-10-11T17:28:19.640Z,12.53
2018-10-11T17:30:47.940Z,11.70
2018-10-11T17:33:16.301Z,11.70
2018-10-11T17:35:44.661Z,12.77
2018-10-11T17:38:12.958Z,14.70
2018-10-11T17:40:41.298Z,13.53
2018-10-11T17:43:09.592Z,14.80
2018-10-11T17:45:37.940Z,13.33
2018-10-11T17:48:06.346Z,16.63
2018-10-11T17:50:34.681Z,14.50
2018-10-11T17:53:02.993Z,13.10
2018-10-11T17:55:31.351Z,12.73
2018-10-11T17:57:59.846Z,12.37
2018-10-11T18:00:28.184Z,12.97
2018-10-11T18:02:56.568Z,13.07
2018-10-11T18:05:24.881Z,12.70
2018-10-11T18:07:53.269Z,14.53
2018-10-11T18:10:21.659Z,14.30
2018-10-11T18:12:49.953Z,12.93
2018-10-11T18:15:19.149Z,13.40
2018-10-11T18:17:47.577Z,13.13
2018-10-11T18:20:15.943Z,13.90
2018-10-11T18:22:44.274Z,15.57
2018-10-11T18:25:12.609Z,14.50
2018-10-11T18:27:40.961Z,14.83
2018-10-11T18:30:10.437Z,15.27
2018-10-11T18:32:38.969Z,64.00
2018-10-11T18:35:08.328Z,26.20
2018-10-11T18:37:36.630Z,17.00
2018-10-11T18:40:05.134Z,15.03
2018-10-11T18:42:33.459Z,17.30
2018-10-11T18:45:01.786Z,21.17
2018-10-11T18:47:30.169Z,25.03
2018-10-11T18:49:58.577Z,18.83
2018-10-11T18:52:27.911Z,16.10
2018-10-11T18:54:56.277Z,16.77
2018-10-11T18:57:24.609Z,15.60
2018-10-11T18:59:52.920Z,15.33
2018-10-11T19:02:21.297Z,15.83
2018-10-11T19:04:49.632Z,16.00
2018-10-11T19:07:18.025Z,16.83
2018-10-11T19:09:46.597Z,15.53
2018-10-11T19:12:14.885Z,14.97
2018-10-11T19:14:43.181Z,15.67
2018-10-11T19:17:11.518Z,15.40
2018-10-11T19:19:39.829Z,15.50
2018-10-11T19:22:08.802Z,15.30
2018-10-11T19:24:37.184Z,14.80
2018-10-11T19:27:05.496Z,16.40
2018-10-11T19:29:33.801Z,16.03
2018-10-11T19:32:02.173Z,15.47
2018-10-11T19:34:30.544Z,16.30
2018-10-11T19:36:59.325Z,15.63
2018-10-11T19:39:27.815Z,16.30
2018-10-11T19:41:56.030Z,15.60
2018-10-11T19:44:24.441Z,15.83
2018-10-11T19:46:52.846Z,16.73
2018-10-11T19:49:21.161Z,15.23
2018-10-11T19:51:49.456Z,16.13
2018-10-11T19:54:18.372Z,16.57
2018-10-11T19:56:46.686Z,17.50
2018-10-11T19:59:15.007Z,16.40
2018-10-11T20:01:43.353Z,16.70
2018-10-11T20:04:11.695Z,16.53
2018-10-11T20:06:40.026Z,15.67
2018-10-11T20:09:09.193Z,16.33
2018-10-11T20:11:37.646Z,15.63
2018-10-11T20:14:06.592Z,16.13
2018-10-11T20:16:34.942Z,15.60
2018-10-11T20:19:03.286Z,16.00
2018-10-11T20:21:31.613Z,16.43
2018-10-11T20:24:00.552Z,15.90
2018-10-11T20:26:28.861Z,16.13
2018-10-11T20:28:57.153Z,16.00
2018-10-11T20:31:25.564Z,17.03
2018-10-11T20:33:53.873Z,15.57
2018-10-11T20:36:22.198Z,15.73
2018-10-11T20:38:50.560Z,16.73
2018-10-11T20:41:18.853Z,15.03
2018-10-11T20:43:47.180Z,15.63
2018-10-11T20:46:15.483Z,16.50
2018-10-11T20:48:43.784Z,16.70
2018-10-11T20:51:12.141Z,16.13
2018-10-11T20:53:40.493Z,15.27
2018-10-11T20:56:08.847Z,16.03
2018-10-11T20:58:37.159Z,15.13
2018-10-11T21:01:05.848Z,16.67
2018-10-11T21:03:34.156Z,15.60
2018-10-11T21:06:02.433Z,15.57
2018-10-11T21:08:30.788Z,16.30
2018-10-11T21:10:59.170Z,16.83
2018-10-11T21:13:27.478Z,16.30
2018-10-11T21:15:55.795Z,16.10
2018-10-11T21:18:24.104Z,15.33
2018-10-11T21:20:52.448Z,16.43
2018-10-11T21:23:20.812Z,17.23
2018-10-11T21:25:49.136Z,16.37
2018-10-11T21:28:17.490Z,17.53
2018-10-11T21:30:45.764Z,16.03
2018-10-11T21:33:14.117Z,15.93
2018-10-11T21:35:42.424Z,15.83
2018-10-11T21:38:10.781Z,17.13
2018-10-11T21:40:39.092Z,18.03
2018-10-11T21:43:07.407Z,16.13
2018-10-11T21:45:35.766Z,15.80
2018-10-11T21:48:04.072Z,15.60
2018-10-11T21:50:32.425Z,16.97
2018-10-11T21:53:00.821Z,15.73
2018-10-11T21:55:31.165Z,16.87
2018-10-11T21:57:59.455Z,15.73
2018-10-11T22:00:33.268Z,17.13
2018-10-11T22:03:01.574Z,16.80
2018-10-11T22:05:29.940Z,16.97
2018-10-11T22:07:58.376Z,18.77
2018-10-11T22:10:26.705Z,17.27
2018-10-11T22:12:55.093Z,17.30
2018-10-11T22:15:23.766Z,16.33
2018-10-11T22:17:52.193Z,16.67
2018-10-11T22:20:20.557Z,17.10
2018-10-11T22:22:48.980Z,16.90
2018-10-11T22:25:17.313Z,16.67
2018-10-11T22:27:45.661Z,16.20
2018-10-11T22:30:14.037Z,16.70
2018-10-11T22:32:42.322Z,16.90
2018-10-11T22:35:10.645Z,17.30
2018-10-11T22:37:38.964Z,16.70
2018-10-11T22:40:07.302Z,18.50
2018-10-11T22:42:35.620Z,36.07
2018-10-11T22:45:04.030Z,26.23
2018-10-11T22:47:32.345Z,22.03
2018-10-11T22:50:00.646Z,19.73
2018-10-11T22:52:29.021Z,18.53
2018-10-11T22:54:57.382Z,19.40
2018-10-11T22:57:25.716Z,18.20
2018-10-11T22:59:54.044Z,17.20
2018-10-11T23:02:22.321Z,16.63
2018-10-11T23:04:50.615Z,15.10
2018-10-11T23:07:18.960Z,16.13
2018-10-11T23:09:47.266Z,15.80
2018-10-11T23:12:15.600Z,16.87
2018-10-11T23:14:44.263Z,16.17
2018-10-11T23:17:12.574Z,16.60
2018-10-11T23:19:40.865Z,16.07
2018-10-11T23:22:09.440Z,15.20
2018-10-11T23:24:37.757Z,15.67
2018-10-11T23:27:06.149Z,15.37
2018-10-11T23:29:34.537Z,15.90
2018-10-11T23:32:02.888Z,15.93
2018-10-11T23:34:31.185Z,15.10
2018-10-11T23:36:59.552Z,15.27
2018-10-11T23:39:27.872Z,16.53
2018-10-11T23:41:56.202Z,16.00
2018-10-11T23:44:24.585Z,15.43
2018-10-11T23:46:52.937Z,16.13
2018-10-11T23:49:21.245Z,16.87
2018-10-11T23:51:49.580Z,16.13
2018-10-11T23:54:17.877Z,16.17
2018-10-11T23:56:46.838Z,17.30
2018-10-11T23:59:15.241Z,16.47
